createdAt,value
2022-11-20T00:00:54.239Z,13.40
2022-11-20T00:03:22.083Z,8.90
2022-11-20T00:05:49.708Z,12.97
2022-11-20T00:08:17.301Z,11.67
2022-11-20T00:10:44.860Z,10.50
2022-11-20T00:13:12.443Z,12.13
2022-11-20T00:15:41.423Z,15.60
2022-11-20T00:18:09.080Z,10.30
2022-11-20T00:20:36.690Z,12.80
2022-11-20T00:23:04.263Z,18.77
2022-11-20T00:25:31.824Z,14.27
2022-11-20T00:27:59.485Z,14.20
2022-11-20T00:30:27.127Z,18.80
2022-11-20T00:32:58.601Z,14.40
2022-11-20T00:35:26.331Z,17.60
2022-11-20T00:37:53.990Z,10.53
2022-11-20T00:40:21.653Z,13.90
2022-11-20T00:42:49.237Z,15.07
2022-11-20T00:45:16.827Z,11.50
2022-11-20T00:47:44.415Z,11.90
2022-11-20T00:50:13.525Z,13.00
2022-11-20T00:52:41.223Z,10.47
2022-11-20T00:55:09.111Z,8.63
2022-11-20T00:57:36.655Z,13.07
2022-11-20T01:00:04.940Z,13.17
2022-11-20T01:02:33.960Z,6.67
2022-11-20T01:05:01.537Z,15.30
2022-11-20T01:07:30.487Z,15.20
2022-11-20T01:09:58.102Z,12.40
2022-11-20T01:12:25.764Z,8.53
2022-11-20T01:14:53.394Z,14.93
2022-11-20T01:17:20.989Z,9.30
2022-11-20T01:19:50.711Z,10.50
2022-11-20T01:22:18.499Z,9.57
2022-11-20T01:24:47.387Z,11.90
2022-11-20T01:27:14.995Z,13.27
2022-11-20T01:29:42.582Z,13.50
2022-11-20T01:32:10.193Z,12.13
2022-11-20T01:34:37.752Z,9.60
2022-11-20T01:37:05.319Z,15.33
2022-11-20T01:39:32.976Z,15.20
2022-11-20T01:42:19.482Z,11.00
2022-11-20T01:44:54.644Z,10.17
2022-11-20T01:47:35.933Z,12.70
2022-11-20T01:50:07.792Z,12.87
2022-11-20T01:52:40.076Z,14.70
2022-11-20T01:55:11.112Z,9.97
2022-11-20T01:57:41.865Z,11.17
2022-11-20T02:00:13.081Z,13.17
2022-11-20T02:02:42.794Z,12.30
2022-11-20T02:05:18.707Z,10.13
2022-11-20T02:07:47.696Z,10.10
2022-11-20T02:10:16.120Z,11.77
2022-11-20T02:13:02.510Z,9.03
2022-11-20T02:15:30.636Z,9.80
2022-11-20T02:17:58.376Z,8.70
2022-11-20T02:20:26.110Z,8.70
2022-11-20T02:22:59.272Z,10.40
2022-11-20T02:25:30.592Z,9.90
2022-11-20T02:27:58.292Z,7.30
2022-11-20T02:30:26.223Z,10.50
2022-11-20T02:32:53.802Z,9.33
2022-11-20T02:35:45.939Z,14.00
2022-11-20T02:38:14.794Z,11.87
2022-11-20T02:40:44.027Z,12.90
2022-11-20T02:43:11.779Z,9.20
2022-11-20T02:45:39.787Z,9.10
2022-11-20T02:48:08.927Z,9.80
2022-11-20T02:50:39.715Z,9.87
2022-11-20T02:53:07.855Z,12.53
2022-11-20T02:55:35.540Z,9.23
2022-11-20T02:58:04.559Z,10.20
2022-11-20T03:00:32.883Z,10.13
2022-11-20T03:03:00.464Z,10.60
2022-11-20T03:05:28.050Z,12.50
2022-11-20T03:07:55.601Z,10.83
2022-11-20T03:10:23.184Z,10.97
2022-11-20T03:12:54.988Z,15.20
2022-11-20T03:15:23.960Z,11.30
2022-11-20T03:17:54.990Z,8.50
2022-11-20T03:20:22.594Z,12.80
2022-11-20T03:22:50.408Z,8.73
2022-11-20T03:25:18.234Z,9.37
2022-11-20T03:27:45.996Z,9.90
2022-11-20T03:30:14.314Z,10.30
2022-11-20T03:32:43.435Z,11.43
2022-11-20T03:35:11.321Z,9.60
2022-11-20T03:37:38.937Z,8.30
2022-11-20T03:40:08.062Z,12.60
2022-11-20T03:42:47.656Z,8.43
2022-11-20T03:45:15.624Z,7.17
2022-11-20T03:47:44.833Z,7.03
2022-11-20T03:50:14.354Z,10.20
2022-11-20T03:52:42.468Z,10.17
2022-11-20T03:55:10.738Z,11.37
2022-11-20T03:57:38.345Z,10.47
2022-11-20T04:00:06.846Z,8.50
2022-11-20T04:02:34.420Z,8.40
2022-11-20T04:05:03.487Z,6.37
2022-11-20T04:07:31.223Z,6.00
2022-11-20T04:09:58.785Z,10.50
2022-11-20T04:12:26.483Z,8.23
2022-11-20T04:14:54.074Z,5.73
2022-11-20T04:17:24.343Z,12.80
2022-11-20T04:19:51.886Z,9.30
2022-11-20T04:22:20.783Z,8.87
2022-11-20T04:24:51.331Z,10.40
2022-11-20T04:27:18.914Z,9.00
2022-11-20T04:29:46.554Z,10.50
2022-11-20T04:32:14.083Z,8.10
2022-11-20T04:34:41.662Z,10.63
2022-11-20T04:37:09.249Z,13.00
2022-11-20T04:39:38.155Z,8.13
2022-11-20T04:42:23.431Z,8.30
2022-11-20T04:44:50.994Z,12.00
2022-11-20T04:47:18.628Z,8.43
2022-11-20T04:49:46.461Z,9.77
2022-11-20T04:52:14.340Z,9.20
2022-11-20T04:54:43.359Z,8.70
2022-11-20T04:57:14.385Z,5.50
2022-11-20T04:59:42.478Z,7.50
2022-11-20T05:02:10.222Z,8.10
2022-11-20T05:04:37.883Z,10.33
2022-11-20T05:07:05.939Z,7.17
2022-11-20T05:09:33.593Z,7.40
2022-11-20T05:12:02.581Z,11.33
2022-11-20T05:14:30.189Z,9.07
2022-11-20T05:16:57.826Z,8.33
2022-11-20T05:19:25.381Z,5.83
2022-11-20T05:21:53.031Z,9.63
2022-11-20T05:24:20.620Z,9.83
2022-11-20T05:26:48.204Z,8.40
2022-11-20T05:29:17.372Z,6.37
2022-11-20T05:31:45.144Z,7.70
2022-11-20T05:34:12.749Z,10.33
2022-11-20T05:36:40.345Z,7.73
2022-11-20T05:39:07.947Z,6.67
2022-11-20T05:41:35.506Z,4.83
2022-11-20T05:44:03.045Z,5.83
2022-11-20T05:46:31.936Z,7.60
2022-11-20T05:49:00.079Z,7.30
2022-11-20T05:51:28.433Z,11.53
2022-11-20T05:53:58.430Z,9.40
2022-11-20T05:56:26.227Z,7.13
2022-11-20T05:58:53.779Z,5.30
2022-11-20T06:01:24.117Z,9.33
2022-11-20T06:03:54.425Z,6.33
2022-11-20T06:06:22.869Z,9.37
2022-11-20T06:08:50.798Z,10.37
2022-11-20T06:11:19.407Z,8.13
2022-11-20T06:13:47.615Z,7.70
2022-11-20T06:16:17.174Z,8.00
2022-11-20T06:18:44.859Z,7.30
2022-11-20T06:21:15.720Z,8.47
2022-11-20T06:23:43.943Z,6.30
2022-11-20T06:26:15.966Z,7.17
2022-11-20T06:28:43.571Z,11.03
2022-11-20T06:31:13.266Z,7.53
2022-11-20T06:33:40.973Z,5.83
2022-11-20T06:36:11.106Z,4.53
2022-11-20T06:38:41.123Z,7.83
2022-11-20T06:41:11.882Z,7.00
2022-11-20T06:43:39.539Z,6.63
2022-11-20T06:46:07.617Z,6.37
2022-11-20T06:48:35.211Z,9.87
2022-11-20T06:51:05.284Z,9.87
2022-11-20T06:53:33.454Z,7.27
2022-11-20T06:56:02.463Z,9.73
2022-11-20T06:58:32.020Z,9.43
2022-11-20T07:01:00.339Z,9.50
2022-11-20T07:03:28.057Z,7.93
2022-11-20T07:05:57.056Z,9.97
2022-11-20T07:08:24.797Z,7.43
2022-11-20T07:10:52.431Z,10.90
2022-11-20T07:13:21.340Z,5.63
2022-11-20T07:15:48.908Z,9.77
2022-11-20T07:18:16.492Z,9.67
2022-11-20T07:20:44.051Z,8.27
2022-11-20T07:23:11.637Z,6.20
2022-11-20T07:25:39.224Z,10.13
2022-11-20T07:28:06.840Z,6.53
2022-11-20T07:30:35.770Z,4.73
2022-11-20T07:33:03.307Z,5.57
2022-11-20T07:35:30.938Z,7.87
2022-11-20T07:37:58.571Z,6.00
2022-11-20T07:40:28.538Z,6.97
2022-11-20T07:42:57.142Z,7.43
2022-11-20T07:45:26.090Z,8.20
2022-11-20T07:47:55.038Z,7.80
2022-11-20T07:50:22.850Z,6.93
2022-11-20T07:52:50.390Z,8.60
2022-11-20T07:55:18.037Z,6.57
2022-11-20T07:57:45.554Z,7.70
2022-11-20T08:00:14.813Z,8.27
2022-11-20T08:02:43.286Z,7.23
2022-11-20T08:05:12.357Z,6.47
2022-11-20T08:07:41.022Z,9.03
2022-11-20T08:10:10.426Z,7.00
2022-11-20T08:12:55.860Z,8.87
2022-11-20T08:15:23.647Z,5.77
2022-11-20T08:18:15.521Z,10.90
2022-11-20T08:20:40.837Z,5.27
2022-11-20T08:23:09.416Z,9.30
2022-11-20T08:25:38.584Z,7.03
2022-11-20T08:28:19.884Z,8.93
2022-11-20T08:30:48.668Z,5.73
2022-11-20T08:33:18.432Z,7.60
2022-11-20T08:35:47.803Z,12.33
2022-11-20T08:38:15.386Z,9.63
2022-11-20T08:41:02.938Z,7.50
2022-11-20T08:43:30.498Z,5.97
2022-11-20T08:45:58.375Z,7.57
2022-11-20T08:48:26.039Z,7.50
2022-11-20T08:50:54.982Z,8.60
2022-11-20T08:53:22.525Z,10.03
2022-11-20T08:55:50.138Z,9.20
2022-11-20T08:58:17.872Z,7.27
2022-11-20T09:00:45.540Z,6.83
2022-11-20T09:03:14.246Z,6.30
2022-11-20T09:05:41.806Z,5.80
2022-11-20T09:08:10.922Z,7.13
2022-11-20T09:10:40.537Z,10.70
2022-11-20T09:13:08.239Z,6.33
2022-11-20T09:15:36.215Z,7.07
2022-11-20T09:18:05.557Z,10.07
2022-11-20T09:20:33.755Z,10.60
2022-11-20T09:23:02.969Z,10.40
2022-11-20T09:25:31.922Z,13.30
2022-11-20T09:28:00.478Z,9.33
2022-11-20T09:30:28.628Z,9.73
2022-11-20T09:32:57.198Z,11.80
2022-11-20T09:35:24.981Z,6.00
2022-11-20T09:37:52.743Z,11.57
2022-11-20T09:40:23.672Z,11.97
2022-11-20T09:43:01.336Z,10.47
2022-11-20T09:45:46.188Z,10.17
2022-11-20T09:48:26.972Z,9.87
2022-11-20T09:51:02.424Z,8.17
2022-11-20T09:53:41.837Z,10.10
2022-11-20T09:56:11.409Z,10.40
2022-11-20T09:58:43.747Z,9.00
2022-11-20T10:01:15.832Z,7.30
2022-11-20T10:03:52.800Z,6.87
2022-11-20T10:06:26.374Z,11.70
2022-11-20T10:09:08.855Z,7.30
2022-11-20T10:11:48.544Z,8.87
2022-11-20T10:14:28.928Z,7.00
2022-11-20T10:17:04.620Z,8.37
2022-11-20T10:19:49.475Z,10.93
2022-11-20T10:22:28.483Z,10.37
2022-11-20T10:24:58.883Z,10.07
2022-11-20T10:28:00.963Z,10.73
2022-11-20T10:30:31.438Z,10.93
2022-11-20T10:33:05.918Z,13.67
2022-11-20T10:35:39.057Z,10.67
2022-11-20T10:38:14.961Z,9.30
2022-11-20T10:40:46.045Z,7.13
2022-11-20T10:43:16.902Z,6.37
2022-11-20T10:45:56.129Z,7.40
2022-11-20T10:48:50.510Z,6.07
2022-11-20T10:51:32.907Z,7.00
2022-11-20T10:54:12.977Z,7.70
2022-11-20T10:56:49.467Z,8.63
2022-11-20T10:59:38.033Z,8.07
2022-11-20T11:02:19.428Z,6.90
2022-11-20T11:04:48.884Z,8.63
2022-11-20T11:07:21.067Z,7.80
2022-11-20T11:09:50.951Z,11.23
2022-11-20T11:12:19.038Z,10.97
2022-11-20T11:14:51.894Z,7.77
2022-11-20T11:17:29.648Z,7.90
2022-11-20T11:20:02.248Z,10.87
2022-11-20T11:22:32.027Z,9.13
2022-11-20T11:24:59.699Z,8.93
2022-11-20T11:27:27.291Z,9.87
2022-11-20T11:30:05.591Z,10.40
2022-11-20T11:32:34.539Z,8.93
2022-11-20T11:35:05.712Z,10.00
2022-11-20T11:37:36.987Z,7.50
2022-11-20T11:42:58.164Z,9.90
2022-11-20T11:45:25.820Z,7.03
2022-11-20T11:47:59.536Z,13.70
2022-11-20T11:50:28.545Z,11.40
2022-11-20T11:53:05.919Z,18.30
2022-11-20T11:55:38.180Z,13.77
2022-11-20T11:58:18.329Z,12.23
2022-11-20T12:00:53.458Z,12.83
2022-11-20T12:03:29.343Z,11.00
2022-11-20T12:06:01.622Z,17.73
2022-11-20T12:08:33.475Z,11.63
2022-11-20T12:11:08.402Z,10.40
2022-11-20T12:13:46.706Z,13.43
2022-11-20T12:16:16.324Z,12.17
2022-11-20T12:18:46.664Z,7.83
2022-11-20T12:21:22.049Z,8.97
2022-11-20T12:24:06.993Z,11.37
2022-11-20T12:26:47.667Z,7.37
2022-11-20T12:29:25.861Z,6.93
2022-11-20T12:32:05.076Z,6.63
2022-11-20T12:34:53.681Z,10.87
2022-11-20T12:37:35.117Z,9.63
2022-11-20T12:40:19.632Z,9.33
2022-11-20T12:43:15.953Z,13.47
2022-11-20T12:46:20.172Z,11.30
2022-11-20T12:49:03.317Z,13.90
2022-11-20T12:51:45.155Z,10.27
2022-11-20T12:54:39.166Z,18.40
2022-11-20T12:57:17.542Z,8.73
2022-11-20T13:00:01.734Z,17.13
2022-11-20T13:02:35.886Z,9.83
2022-11-20T13:05:15.801Z,9.27
2022-11-20T13:07:45.718Z,11.23
2022-11-20T13:10:22.794Z,11.77
2022-11-20T13:12:56.802Z,14.63
2022-11-20T13:15:38.778Z,16.40
2022-11-20T13:18:10.914Z,8.67
2022-11-20T13:20:43.993Z,8.40
2022-11-20T13:23:13.793Z,10.40
2022-11-20T13:25:42.020Z,8.60
2022-11-20T13:28:31.438Z,15.90
2022-11-20T13:31:00.125Z,9.47
2022-11-20T13:33:33.200Z,6.90
2022-11-20T13:36:02.961Z,10.03
2022-11-20T13:38:44.745Z,10.40
2022-11-20T13:41:26.408Z,8.33
2022-11-20T13:43:54.817Z,8.50
2022-11-20T13:46:25.450Z,8.07
2022-11-20T13:48:55.280Z,8.30
2022-11-20T13:51:35.156Z,7.43
2022-11-20T13:54:41.628Z,8.50
2022-11-20T13:57:29.949Z,6.73
2022-11-20T14:00:00.415Z,6.43
2022-11-20T14:02:32.029Z,10.10
2022-11-20T14:05:01.790Z,6.17
2022-11-20T14:07:36.931Z,11.90
2022-11-20T14:10:07.026Z,11.67
2022-11-20T14:12:37.727Z,10.23
2022-11-20T14:15:20.741Z,9.70
2022-11-20T14:17:48.296Z,8.73
2022-11-20T14:20:19.784Z,14.37
2022-11-20T14:22:50.955Z,12.87
2022-11-20T14:25:27.882Z,10.60
2022-11-20T14:27:57.935Z,14.13
2022-11-20T14:30:27.589Z,13.40
2022-11-20T14:32:57.955Z,11.20
2022-11-20T14:35:27.580Z,9.40
2022-11-20T14:37:56.733Z,10.90
2022-11-20T14:40:29.509Z,10.30
2022-11-20T14:42:57.964Z,8.17
2022-11-20T14:45:26.489Z,10.40
2022-11-20T14:47:57.216Z,10.00
2022-11-20T14:50:26.915Z,13.33
2022-11-20T14:52:56.946Z,16.77
2022-11-20T14:55:31.384Z,16.67
2022-11-20T14:58:01.322Z,13.80
2022-11-20T15:00:29.950Z,10.97
2022-11-20T15:02:58.131Z,10.77
2022-11-20T15:05:45.533Z,9.40
2022-11-20T15:08:14.356Z,14.90
2022-11-20T15:10:50.041Z,14.40
2022-11-20T15:13:24.892Z,8.93
2022-11-20T15:15:56.072Z,11.53
2022-11-20T15:18:26.115Z,12.13
2022-11-20T15:20:56.522Z,14.57
2022-11-20T15:23:24.820Z,12.90
2022-11-20T15:25:53.860Z,13.33
2022-11-20T15:28:23.748Z,11.43
2022-11-20T15:30:51.927Z,10.80
2022-11-20T15:33:20.410Z,11.23
2022-11-20T15:35:48.017Z,11.43
2022-11-20T15:38:18.928Z,13.37
2022-11-20T15:40:46.835Z,12.03
2022-11-20T15:43:16.032Z,19.30
2022-11-20T15:45:46.747Z,20.23
2022-11-20T15:48:17.425Z,25.77
2022-11-20T15:50:52.906Z,15.10
2022-11-20T15:53:20.612Z,15.40
2022-11-20T15:55:48.316Z,19.03
2022-11-20T15:58:17.912Z,14.30
2022-11-20T16:00:46.493Z,13.33
2022-11-20T16:03:15.021Z,13.13
2022-11-20T16:05:42.758Z,14.87
2022-11-20T16:08:11.998Z,10.60
2022-11-20T16:10:40.438Z,14.07
2022-11-20T16:13:31.587Z,14.87
2022-11-20T16:16:05.792Z,11.97
2022-11-20T16:18:34.045Z,13.73
2022-11-20T16:21:01.646Z,20.60
2022-11-20T16:23:29.264Z,17.40
2022-11-20T16:25:56.833Z,22.43
2022-11-20T16:28:24.400Z,22.43
2022-11-20T16:30:51.923Z,17.53
2022-11-20T16:33:20.961Z,13.50
2022-11-20T16:35:48.582Z,25.27
2022-11-20T16:38:16.153Z,20.80
2022-11-20T16:40:43.667Z,16.27
2022-11-20T16:43:13.172Z,17.30
2022-11-20T16:45:45.133Z,8.60
2022-11-20T16:48:14.952Z,10.53
2022-11-20T16:50:51.355Z,15.20
2022-11-20T16:53:19.679Z,13.63
2022-11-20T16:55:47.924Z,13.00
2022-11-20T16:58:16.347Z,13.70
2022-11-20T17:00:50.096Z,15.23
2022-11-20T17:03:19.364Z,15.10
2022-11-20T17:05:48.116Z,20.87
2022-11-20T17:08:17.048Z,28.20
2022-11-20T17:10:44.631Z,17.83
2022-11-20T17:13:12.449Z,23.93
2022-11-20T17:15:40.079Z,17.30
2022-11-20T17:18:10.360Z,22.43
2022-11-20T17:20:37.981Z,16.87
2022-11-20T17:23:05.639Z,19.07
2022-11-20T17:25:35.209Z,23.60
2022-11-20T17:28:02.825Z,19.50
2022-11-20T17:30:36.601Z,19.63
2022-11-20T17:33:04.670Z,16.40
2022-11-20T17:35:32.258Z,19.00
2022-11-20T17:37:59.875Z,23.37
2022-11-20T17:40:29.431Z,20.97
2022-11-20T17:42:58.444Z,23.70
2022-11-20T17:45:26.012Z,22.57
2022-11-20T17:48:18.667Z,23.33
2022-11-20T17:50:46.538Z,32.10
2022-11-20T17:53:14.166Z,27.53
2022-11-20T17:55:59.228Z,34.87
2022-11-20T17:58:29.926Z,24.20
2022-11-20T18:00:57.451Z,33.10
2022-11-20T18:03:25.500Z,35.17
2022-11-20T18:05:53.093Z,26.20
2022-11-20T18:08:20.644Z,35.50
2022-11-20T18:10:48.220Z,24.10
2022-11-20T18:13:15.844Z,20.47
2022-11-20T18:15:44.730Z,23.13
2022-11-20T18:18:12.317Z,16.63
2022-11-20T18:20:40.329Z,14.97
2022-11-20T18:23:08.010Z,19.60
2022-11-20T18:25:35.574Z,19.40
2022-11-20T18:28:03.146Z,18.10
2022-11-20T18:30:31.053Z,18.70
2022-11-20T18:33:00.044Z,21.47
2022-11-20T18:35:28.216Z,16.40
2022-11-20T18:37:57.093Z,24.43
2022-11-20T18:40:24.706Z,31.03
2022-11-20T18:43:09.909Z,27.40
2022-11-20T18:45:37.981Z,22.03
2022-11-20T18:48:07.711Z,29.40
2022-11-20T18:50:35.733Z,27.23
2022-11-20T18:53:03.266Z,22.13
2022-11-20T18:55:30.823Z,29.57
2022-11-20T18:57:58.406Z,26.23
2022-11-20T19:00:26.026Z,21.67
2022-11-20T19:02:55.026Z,51.67
2022-11-20T19:05:23.979Z,26.00
2022-11-20T19:07:51.566Z,27.73
2022-11-20T19:10:20.476Z,22.90
2022-11-20T19:12:48.201Z,22.47
2022-11-20T19:15:16.089Z,19.77
2022-11-20T19:17:43.636Z,15.83
2022-11-20T19:20:12.082Z,19.87
2022-11-20T19:22:41.001Z,18.40
2022-11-20T19:25:09.441Z,21.30
2022-11-20T19:27:37.042Z,29.17
2022-11-20T19:30:05.562Z,18.50
2022-11-20T19:32:35.130Z,26.63
2022-11-20T19:35:03.501Z,26.57
2022-11-20T19:37:33.953Z,22.90
2022-11-20T19:40:04.739Z,17.30
2022-11-20T19:42:33.039Z,16.57
2022-11-20T19:45:00.626Z,16.80
2022-11-20T19:47:46.364Z,18.27
2022-11-20T19:50:16.804Z,19.10
2022-11-20T19:52:44.426Z,18.07
2022-11-20T19:55:13.343Z,14.97
2022-11-20T19:57:40.948Z,21.40
2022-11-20T20:00:09.878Z,22.27
2022-11-20T20:02:37.623Z,21.13
2022-11-20T20:05:05.872Z,15.60
2022-11-20T20:07:33.588Z,16.80
2022-11-20T20:10:01.254Z,18.73
2022-11-20T20:12:30.200Z,12.93
2022-11-20T20:14:57.816Z,16.80
2022-11-20T20:17:25.559Z,18.53
2022-11-20T20:19:53.138Z,15.67
2022-11-20T20:22:20.739Z,14.47
2022-11-20T20:24:48.331Z,14.43
2022-11-20T20:27:15.879Z,15.80
2022-11-20T20:29:44.883Z,19.63
2022-11-20T20:32:12.555Z,21.10
2022-11-20T20:34:40.139Z,13.83
2022-11-20T20:37:07.835Z,16.77
2022-11-20T20:39:35.431Z,24.77
2022-11-20T20:42:02.974Z,17.63
2022-11-20T20:44:48.500Z,20.60
2022-11-20T20:47:17.472Z,19.43
2022-11-20T20:49:45.247Z,18.30
2022-11-20T20:52:12.916Z,16.60
2022-11-20T20:54:42.222Z,20.40
2022-11-20T20:57:09.811Z,18.67
2022-11-20T20:59:37.393Z,26.93
2022-11-20T21:02:05.012Z,28.70
2022-11-20T21:04:34.836Z,25.37
2022-11-20T21:07:02.492Z,23.97
2022-11-20T21:09:30.196Z,17.73
2022-11-20T21:11:57.830Z,22.80
2022-11-20T21:14:27.314Z,28.23
2022-11-20T21:16:56.669Z,24.87
2022-11-20T21:19:24.327Z,29.40
2022-11-20T21:22:03.179Z,24.10
2022-11-20T21:24:35.704Z,18.17
2022-11-20T21:27:05.497Z,18.23
2022-11-20T21:29:34.659Z,14.57
2022-11-20T21:32:02.350Z,17.13
2022-11-20T21:34:30.150Z,19.70
2022-11-20T21:36:59.160Z,21.00
2022-11-20T21:39:26.843Z,15.40
2022-11-20T21:41:54.935Z,29.80
2022-11-20T21:44:31.388Z,19.03
2022-11-20T21:46:59.806Z,25.43
2022-11-20T21:49:27.518Z,17.83
2022-11-20T21:51:55.177Z,20.23
2022-11-20T21:54:24.704Z,16.37
2022-11-20T21:56:53.070Z,17.60
2022-11-20T21:59:21.534Z,15.33
2022-11-20T22:01:49.278Z,12.40
2022-11-20T22:04:16.938Z,16.80
2022-11-20T22:06:44.732Z,18.00
2022-11-20T22:09:12.667Z,13.43
2022-11-20T22:11:43.734Z,17.20
2022-11-20T22:14:23.200Z,17.33
2022-11-20T22:16:53.625Z,18.40
2022-11-20T22:19:22.741Z,16.40
2022-11-20T22:21:51.692Z,18.90
2022-11-20T22:24:21.352Z,12.93
2022-11-20T22:26:50.886Z,13.83
2022-11-20T22:29:20.806Z,17.53
2022-11-20T22:31:48.798Z,15.67
2022-11-20T22:34:16.467Z,17.57
2022-11-20T22:36:44.580Z,17.87
2022-11-20T22:39:13.342Z,19.20
2022-11-20T22:41:43.403Z,16.63
2022-11-20T22:44:16.318Z,13.77
2022-11-20T22:46:46.344Z,15.90
2022-11-20T22:49:14.229Z,14.40
2022-11-20T22:51:42.958Z,15.07
2022-11-20T22:54:12.654Z,16.50
2022-11-20T22:56:42.022Z,14.63
2022-11-20T22:59:09.771Z,16.23
2022-11-20T23:01:39.307Z,16.10
2022-11-20T23:04:10.588Z,13.50
2022-11-20T23:06:38.650Z,14.73
2022-11-20T23:09:08.187Z,17.00
2022-11-20T23:11:36.592Z,12.30
2022-11-20T23:14:06.621Z,15.97
2022-11-20T23:16:35.508Z,14.50
2022-11-20T23:19:13.541Z,12.63
2022-11-20T23:21:43.914Z,19.43
2022-11-20T23:24:12.189Z,14.67
2022-11-20T23:26:43.568Z,18.00
2022-11-20T23:29:11.300Z,12.97
2022-11-20T23:31:38.974Z,12.30
2022-11-20T23:34:08.015Z,17.27
2022-11-20T23:36:35.678Z,14.87
2022-11-20T23:39:05.334Z,16.47
2022-11-20T23:41:32.951Z,14.37
2022-11-20T23:44:00.586Z,20.50
2022-11-20T23:46:28.300Z,11.67
2022-11-20T23:48:55.885Z,17.53
2022-11-20T23:51:24.948Z,12.77
2022-11-20T23:53:52.686Z,16.07
2022-11-20T23:56:22.133Z,19.70
2022-11-20T23:58:49.911Z,16.37
